Greenbush, MN (56726)

8:57 PM CST on March 03, 2015 (GMT -0600)
RAWS KITTSON MN US | Change Station
CLOSE
Current Station
Personal Weather Station
Location: Karlstad, MN
Elevation: 1060 ft
Nearby Weather Stations
Active Advisory: Wind Chill Advisory

Elev 1060 ft 48.59 °N, 96.49 °W | Updated 25 minutes ago

Partly Cloudy
Partly Cloudy
-1 °F
Feels Like -17 °F
N
10
Wind Variable Wind from WNW
Gusts 19.0 mph

Today
High -- | Low -- °F
--% Chance of Precip.
Yesterday
High -- | Low -- °F
Precip. -- in
7:02 AM 6:11 PM
Waxing Gibbous, 98% visible
Pressure 29.90 in
Visibility 10.0 miles
Clouds Scattered Clouds 3700 ft
Windchill -17 °F
Dew Point -11 °F
Humidity 61%
Rainfall 0.00 in
Snow Depth Not available.
UV 0 out of 12
Pollen .10 out of 12
Air Quality Not available.
Flu Activity Not available.
METAR KROX 040234Z AUTO 28009G15KT 10SM SCT037 M18/M23 A2990 RMK AO2

More Conditions Fewer Conditions

Pressure 29.90 in
Visibility 10.0 miles
Clouds Scattered Clouds 3700 ft
Windchill -17 °F
Dew Point -11 °F
Humidity 61%
Rainfall 0.00 in
Snow Depth Not available.
UV 0 out of 12
Pollen .10 out of 12
Air Quality Not available.
Flu Activity Not available.
METAR KROX 040234Z AUTO 28009G15KT 10SM SCT037 M18/M23 A2990 RMK AO2

More Conditions Fewer Conditions

10-Day Weather Forecast

Almanac

Astronomy

Mar. 03, 2015 Rise Set
Actual Time
Civil Twilight
Nautical Twilight
Astronomical Twilight
Moon
Length of Visible Light
Length of Day
Tomorrow will be .
, % of the Moon is Illuminated

Today's Extremes

State Highs State Lows

Community

WunderPhotos

Upload Photos

1,802,361 photos uploaded!

WunderBlogs® & News

Nearby

Air Quality

  Air Quality AQ Index Pollutant
Not available.

Snow Depth

Station Depth Elevation

Earthquake Activity

City Distance Mag. Time & Date
Minimum magnitude displayed is 2.5.

Coastal Water Temperatures

Place Temperature

Nearby Weather Stations

Wind Chill Advisory
Statement as of 3:28 PM CST on March 03, 2015

... Wind Chill Advisory in effect until noon CST Wednesday...

The National Weather Service in Grand Forks has issued a Wind
Chill Advisory... which is in effect until noon CST Wednesday.

* Timing... tonight through Wednesday morning.

* Wind chill values... 30 to 40 below.

Precautionary/preparedness actions...

A Wind Chill Advisory means that very cold air and winds will
combine to generate low wind chills. This will result in frost
bite and lead to hypothermia if precautions are not taken. If
you must venture outdoors... make sure you wear appropriate
clothing... including hat and gloves.